Alexander, North Carolina
Current Conditions -  °F | °C
As of 8:54 PM on Tuesday 21 Oct 2014 (Local Time) from KAVL Reporting Station
Few Clouds Few Clouds  
Wind Chill: 12°   Ceiling: Unl
Heat Index: 12°   Visibility: 10mi
Dew Point:   Wind: 20mph
Humidity: 55%   Direction: 340°NNW
Pressure: 30"   Gusts: 26mph
Location:  35.69°N, 82.66°W
Report Text: KAVL 220054Z 34017G23KT 10SM FEW050 12/03 A3000 RMK AO2 PK WND 34027/0034 SLP153 T01220033
Loading
Personal Weather Stations






























Interactive Weather Map
Tropical Storm Tracking
New forecast layout! Learn more

10-Day Weather Forecast

Advertisements
Track Severe Weather on mobile